createdAt,value
2022-07-30T00:00:53.511Z,19.39
2022-07-30T00:03:21.151Z,19.74
2022-07-30T00:05:49.510Z,19.46
2022-07-30T00:08:17.002Z,20.00
2022-07-30T00:10:45.887Z,19.70
2022-07-30T00:13:14.331Z,19.77
2022-07-30T00:15:42.237Z,20.43
2022-07-30T00:18:09.725Z,20.35
2022-07-30T00:20:40.658Z,20.68
2022-07-30T00:23:11.777Z,20.93
2022-07-30T00:25:39.358Z,21.14
2022-07-30T00:28:08.184Z,21.24
2022-07-30T00:30:35.691Z,21.29
2022-07-30T00:33:03.306Z,21.00
2022-07-30T00:35:31.092Z,21.10
2022-07-30T00:37:58.567Z,21.05
2022-07-30T00:40:26.074Z,21.04
2022-07-30T00:42:53.569Z,20.86
2022-07-30T00:45:22.379Z,20.45
2022-07-30T00:47:49.937Z,19.90
2022-07-30T00:50:17.984Z,19.53
2022-07-30T00:52:46.636Z,20.08
2022-07-30T00:55:15.934Z,20.23
2022-07-30T00:57:44.057Z,19.82
2022-07-30T01:00:15.262Z,18.98
2022-07-30T01:02:44.120Z,19.56
2022-07-30T01:05:12.334Z,19.50
2022-07-30T01:07:39.841Z,19.53
2022-07-30T01:10:10.905Z,19.51
2022-07-30T01:12:39.364Z,19.18
2022-07-30T01:15:09.416Z,19.16
2022-07-30T01:17:37.186Z,19.26
2022-07-30T01:20:10.424Z,19.08
2022-07-30T01:22:48.904Z,19.19
2022-07-30T01:25:23.605Z,19.43
2022-07-30T01:27:59.245Z,19.24
2022-07-30T01:30:30.936Z,18.81
2022-07-30T01:33:00.663Z,19.11
2022-07-30T01:35:31.701Z,18.94
2022-07-30T01:38:01.523Z,19.34
2022-07-30T01:40:30.281Z,18.90
2022-07-30T01:43:01.678Z,18.64
2022-07-30T01:45:30.990Z,18.83
2022-07-30T01:48:04.161Z,18.87
2022-07-30T01:50:33.438Z,18.76
2022-07-30T01:53:01.749Z,19.00
2022-07-30T01:55:35.920Z,18.53
2022-07-30T01:58:07.221Z,18.87
2022-07-30T02:00:39.053Z,18.74
2022-07-30T02:03:08.706Z,18.54
2022-07-30T02:05:38.047Z,18.42
2022-07-30T02:08:12.068Z,18.20
2022-07-30T02:10:44.947Z,18.13
2022-07-30T02:13:18.758Z,18.27
2022-07-30T02:15:50.958Z,18.37
2022-07-30T02:18:23.872Z,18.00
2022-07-30T02:21:07.623Z,17.93
2022-07-30T02:23:43.332Z,17.80
2022-07-30T02:26:15.966Z,17.79
2022-07-30T02:28:46.711Z,17.65
2022-07-30T02:31:18.561Z,17.50
2022-07-30T02:33:50.273Z,17.33
2022-07-30T02:36:19.278Z,17.33
2022-07-30T02:38:50.649Z,17.30
2022-07-30T02:41:19.974Z,17.25
2022-07-30T02:43:50.448Z,17.39
2022-07-30T02:46:20.042Z,17.39
2022-07-30T02:48:50.093Z,17.45
2022-07-30T02:51:19.844Z,17.48
2022-07-30T02:53:51.836Z,17.63
2022-07-30T02:56:22.156Z,17.64
2022-07-30T02:58:54.077Z,17.65
2022-07-30T03:01:23.966Z,17.56
2022-07-30T03:03:53.085Z,17.67
2022-07-30T03:06:22.020Z,17.56
2022-07-30T03:08:49.824Z,17.46
2022-07-30T03:11:20.189Z,17.51
2022-07-30T03:13:48.291Z,17.45
2022-07-30T03:16:19.660Z,17.51
2022-07-30T03:18:49.312Z,17.44
2022-07-30T03:21:18.384Z,17.41
2022-07-30T03:23:48.815Z,17.51
2022-07-30T03:26:20.463Z,17.61
2022-07-30T03:28:48.584Z,17.56
2022-07-30T03:31:18.943Z,17.47
2022-07-30T03:33:47.418Z,17.68
2022-07-30T03:36:15.855Z,17.66
2022-07-30T03:38:44.851Z,17.62
2022-07-30T03:41:12.851Z,17.58
2022-07-30T03:43:41.342Z,17.46
2022-07-30T03:46:11.871Z,17.15
2022-07-30T03:48:41.732Z,17.29
2022-07-30T03:51:10.255Z,17.18
2022-07-30T03:53:38.646Z,16.88
2022-07-30T03:56:06.667Z,16.65
2022-07-30T03:58:35.992Z,16.56
2022-07-30T04:01:03.914Z,16.31
2022-07-30T04:03:33.645Z,16.33
2022-07-30T04:06:02.723Z,16.42
2022-07-30T04:08:30.219Z,16.92
2022-07-30T04:10:58.368Z,17.21
2022-07-30T04:13:25.859Z,17.32
2022-07-30T04:16:05.123Z,17.10
2022-07-30T04:18:51.353Z,16.69
2022-07-30T04:21:23.454Z,16.53
2022-07-30T04:24:03.725Z,16.71
2022-07-30T04:26:32.859Z,16.41
2022-07-30T04:29:01.668Z,16.26
2022-07-30T04:31:30.593Z,16.15
2022-07-30T04:34:02.754Z,16.30
2022-07-30T04:36:34.676Z,16.26
2022-07-30T04:39:02.767Z,16.29
2022-07-30T04:41:35.355Z,16.44
2022-07-30T04:44:16.892Z,16.28
2022-07-30T04:46:44.497Z,16.14
2022-07-30T04:49:13.495Z,16.16
2022-07-30T04:51:43.658Z,16.22
2022-07-30T04:54:15.287Z,16.44
2022-07-30T04:56:53.136Z,16.52
2022-07-30T04:59:24.524Z,16.42
2022-07-30T05:01:52.756Z,16.26
2022-07-30T05:04:22.395Z,16.32
2022-07-30T05:06:51.669Z,16.43
2022-07-30T05:09:19.792Z,16.73
2022-07-30T05:11:52.092Z,16.82
2022-07-30T05:14:20.893Z,16.86
2022-07-30T05:16:48.714Z,17.17
2022-07-30T05:19:16.389Z,17.61
2022-07-30T05:21:43.885Z,17.78
2022-07-30T05:24:13.140Z,17.51
2022-07-30T05:26:41.414Z,17.69
2022-07-30T05:29:08.966Z,17.43
2022-07-30T05:31:38.044Z,17.05
2022-07-30T05:34:05.890Z,16.99
2022-07-30T05:36:33.638Z,16.79
2022-07-30T05:39:01.271Z,17.10
2022-07-30T05:41:32.129Z,17.77
2022-07-30T05:44:00.893Z,18.20
2022-07-30T05:46:28.964Z,18.91
2022-07-30T05:48:56.526Z,18.95
2022-07-30T05:51:24.124Z,19.14
2022-07-30T05:53:51.755Z,19.85
2022-07-30T05:56:19.282Z,20.16
2022-07-30T05:58:48.111Z,20.32
2022-07-30T06:01:15.677Z,20.66
2022-07-30T06:03:43.224Z,21.19
2022-07-30T06:06:10.820Z,21.01
2022-07-30T06:08:38.684Z,21.32
2022-07-30T06:11:08.757Z,21.90
2022-07-30T06:13:36.424Z,21.99
2022-07-30T06:16:06.158Z,21.41
2022-07-30T06:18:33.788Z,21.70
2022-07-30T06:21:01.324Z,21.16
2022-07-30T06:23:28.880Z,21.86
2022-07-30T06:25:56.387Z,23.20
2022-07-30T06:28:39.739Z,23.30
2022-07-30T06:31:08.899Z,23.55
2022-07-30T06:33:36.456Z,23.89
2022-07-30T06:36:04.056Z,23.76
2022-07-30T06:38:31.676Z,22.94
2022-07-30T06:41:02.815Z,22.24
2022-07-30T06:43:31.974Z,22.91
2022-07-30T06:45:59.517Z,22.13
2022-07-30T06:48:28.391Z,20.58
2022-07-30T06:50:55.967Z,20.28
2022-07-30T06:53:23.733Z,19.93
2022-07-30T06:55:51.305Z,19.76
2022-07-30T06:58:25.679Z,19.90
2022-07-30T07:00:53.638Z,20.17
2022-07-30T07:03:21.371Z,21.27
2022-07-30T07:05:50.265Z,20.18
2022-07-30T07:08:18.440Z,19.87
2022-07-30T07:10:45.929Z,19.94
2022-07-30T07:13:13.567Z,19.61
2022-07-30T07:15:41.143Z,20.71
2022-07-30T07:18:09.020Z,22.53
2022-07-30T07:20:36.517Z,23.12
2022-07-30T07:23:09.364Z,22.86
2022-07-30T07:25:39.778Z,22.45
2022-07-30T07:28:11.993Z,21.55
2022-07-30T07:30:41.149Z,20.67
2022-07-30T07:33:08.773Z,20.04
2022-07-30T07:35:49.074Z,20.91
2022-07-30T07:38:18.669Z,21.17
2022-07-30T07:40:46.384Z,22.30
2022-07-30T07:43:14.544Z,22.73
2022-07-30T07:45:42.515Z,23.82
2022-07-30T07:48:10.068Z,24.58
2022-07-30T07:50:37.654Z,22.86
2022-07-30T07:53:05.448Z,21.94
2022-07-30T07:55:34.315Z,21.98
2022-07-30T07:58:01.906Z,24.28
2022-07-30T08:00:29.858Z,23.70
2022-07-30T08:02:57.643Z,23.94
2022-07-30T08:05:59.051Z,23.84
2022-07-30T08:08:13.771Z,23.40
2022-07-30T08:10:42.579Z,25.54
2022-07-30T08:13:49.335Z,26.84
2022-07-30T08:15:57.490Z,26.83
2022-07-30T08:18:24.975Z,26.52
2022-07-30T08:20:52.436Z,24.07
2022-07-30T08:23:22.172Z,24.91
2022-07-30T08:25:51.046Z,22.87
2022-07-30T08:28:35.415Z,23.10
2022-07-30T08:31:03.828Z,22.80
2022-07-30T08:33:31.364Z,22.86
2022-07-30T08:35:59.431Z,24.25
2022-07-30T08:38:36.907Z,22.76
2022-07-30T08:41:05.766Z,22.57
2022-07-30T08:43:36.193Z,22.47
2022-07-30T08:46:08.881Z,22.27
2022-07-30T08:48:37.092Z,22.59
2022-07-30T08:51:04.917Z,24.13
2022-07-30T08:53:34.477Z,24.86
2022-07-30T08:56:02.359Z,24.24
2022-07-30T08:58:35.025Z,24.15
2022-07-30T09:01:03.014Z,24.73
2022-07-30T09:03:30.668Z,24.54
2022-07-30T09:05:58.280Z,24.62
2022-07-30T09:08:26.333Z,23.02
2022-07-30T09:10:53.841Z,23.12
2022-07-30T09:13:26.251Z,22.80
2022-07-30T09:15:56.635Z,23.83
2022-07-30T09:18:29.170Z,21.94
2022-07-30T09:20:57.087Z,23.31
2022-07-30T09:23:24.572Z,24.52
2022-07-30T09:25:52.363Z,23.84
2022-07-30T09:28:30.018Z,23.76
2022-07-30T09:30:59.077Z,24.83
2022-07-30T09:33:37.810Z,24.05
2022-07-30T09:36:07.125Z,23.53
2022-07-30T09:38:47.549Z,23.71
2022-07-30T09:41:37.263Z,21.82
2022-07-30T09:44:05.349Z,22.88
2022-07-30T09:46:45.262Z,23.26
2022-07-30T09:49:16.857Z,23.56
2022-07-30T09:54:51.001Z,23.42
2022-07-30T09:57:25.555Z,24.12
2022-07-30T09:59:55.197Z,23.89
2022-07-30T10:02:31.990Z,22.98
2022-07-30T10:05:10.576Z,22.64
2022-07-30T10:07:48.946Z,23.50
2022-07-30T10:10:20.868Z,23.56
2022-07-30T10:12:51.815Z,23.40
2022-07-30T10:15:21.139Z,23.85
2022-07-30T10:17:50.382Z,22.85
2022-07-30T10:20:18.792Z,23.00
2022-07-30T10:22:50.134Z,24.19
2022-07-30T10:25:20.914Z,24.13
2022-07-30T10:27:57.867Z,24.13
2022-07-30T10:30:27.814Z,22.65
2022-07-30T10:32:58.127Z,24.15
2022-07-30T10:35:31.471Z,24.31
2022-07-30T10:38:13.944Z,23.45
2022-07-30T10:40:48.580Z,24.36
2022-07-30T10:43:42.586Z,24.95
2022-07-30T10:46:23.595Z,24.46
2022-07-30T10:48:52.493Z,25.12
2022-07-30T10:51:34.286Z,25.14
2022-07-30T10:54:02.206Z,25.05
2022-07-30T10:56:30.040Z,25.74
2022-07-30T10:59:07.914Z,24.80
2022-07-30T11:02:10.167Z,24.10
2022-07-30T11:04:39.648Z,23.80
2022-07-30T11:07:31.260Z,22.89
2022-07-30T11:10:05.212Z,23.08
2022-07-30T11:12:56.756Z,24.42
2022-07-30T11:15:24.724Z,25.55
2022-07-30T11:18:12.074Z,24.31
2022-07-30T11:20:48.862Z,24.73
2022-07-30T11:23:39.208Z,24.38
2022-07-30T11:26:07.198Z,23.92
2022-07-30T11:28:36.653Z,23.97
2022-07-30T11:31:10.090Z,23.99
2022-07-30T11:33:38.126Z,25.48
2022-07-30T11:36:11.969Z,24.43
2022-07-30T11:39:00.093Z,24.08
2022-07-30T11:41:34.534Z,23.14
2022-07-30T11:44:27.692Z,24.02
2022-07-30T11:46:55.530Z,23.25
2022-07-30T11:49:23.117Z,24.14
2022-07-30T11:51:51.993Z,23.52
2022-07-30T11:54:19.612Z,24.57
2022-07-30T11:56:51.778Z,25.26
2022-07-30T11:59:19.473Z,25.38
2022-07-30T12:01:50.987Z,25.39
2022-07-30T12:04:18.534Z,26.60
2022-07-30T12:06:47.005Z,27.13
2022-07-30T12:09:22.419Z,25.83
2022-07-30T12:11:50.273Z,26.02
2022-07-30T12:14:17.796Z,24.70
2022-07-30T12:16:51.089Z,24.27
2022-07-30T12:19:18.578Z,23.99
2022-07-30T12:21:49.591Z,23.83
2022-07-30T12:24:25.707Z,24.35
2022-07-30T12:26:53.178Z,24.25
2022-07-30T12:29:20.875Z,25.50
2022-07-30T12:31:48.439Z,25.38
2022-07-30T12:34:23.032Z,26.55
2022-07-30T12:36:50.906Z,25.99
2022-07-30T12:39:24.697Z,23.97
2022-07-30T12:41:55.916Z,23.81
2022-07-30T12:44:39.405Z,24.15
2022-07-30T12:47:19.929Z,24.17
2022-07-30T12:49:49.618Z,23.62
2022-07-30T12:52:27.874Z,23.73
2022-07-30T12:55:07.396Z,23.28
2022-07-30T12:58:01.779Z,24.08
2022-07-30T13:00:36.026Z,24.14
2022-07-30T13:03:03.572Z,23.84
2022-07-30T13:05:47.530Z,24.27
2022-07-30T13:08:15.372Z,24.46
2022-07-30T13:10:57.238Z,23.97
2022-07-30T13:13:26.985Z,22.99
2022-07-30T13:16:01.772Z,21.84
2022-07-30T13:18:30.059Z,21.23
2022-07-30T13:20:57.932Z,21.13
2022-07-30T13:23:25.938Z,21.96
2022-07-30T13:25:53.604Z,23.69
2022-07-30T13:28:22.886Z,24.14
2022-07-30T13:30:50.620Z,24.32
2022-07-30T13:33:18.838Z,24.89
2022-07-30T13:35:46.302Z,25.91
2022-07-30T13:38:15.494Z,27.09
2022-07-30T13:40:42.991Z,27.21
2022-07-30T13:43:10.618Z,26.80
2022-07-30T13:45:39.463Z,26.27
2022-07-30T13:48:07.399Z,25.44
2022-07-30T13:50:34.969Z,24.73
2022-07-30T13:53:02.862Z,24.13
2022-07-30T13:55:30.427Z,24.30
2022-07-30T13:57:58.740Z,24.19
2022-07-30T14:00:32.172Z,23.41
2022-07-30T14:03:02.077Z,23.38
2022-07-30T14:05:29.561Z,23.18
2022-07-30T14:07:57.108Z,23.27
2022-07-30T14:10:24.647Z,23.62
2022-07-30T14:12:54.939Z,23.37
2022-07-30T14:15:23.033Z,22.85
2022-07-30T14:17:56.047Z,22.45
2022-07-30T14:20:28.872Z,22.50
2022-07-30T14:22:56.800Z,22.14
2022-07-30T14:25:24.478Z,22.07
2022-07-30T14:27:52.245Z,21.85
2022-07-30T14:30:20.181Z,21.78
2022-07-30T14:32:48.134Z,21.73
2022-07-30T14:35:15.615Z,21.77
2022-07-30T14:37:44.416Z,21.91
2022-07-30T14:40:13.130Z,21.90
2022-07-30T14:42:40.840Z,21.78
2022-07-30T14:45:10.131Z,21.76
2022-07-30T14:47:37.683Z,22.07
2022-07-30T14:50:05.887Z,22.43
2022-07-30T14:52:34.936Z,22.44
2022-07-30T14:55:04.136Z,22.40
2022-07-30T14:57:34.346Z,22.77
2022-07-30T15:00:02.336Z,22.98
2022-07-30T15:02:30.088Z,23.04
2022-07-30T15:04:57.742Z,23.72
2022-07-30T15:07:25.196Z,24.47
2022-07-30T15:09:52.669Z,24.73
2022-07-30T15:12:26.946Z,24.50
2022-07-30T15:14:54.873Z,24.09
2022-07-30T15:17:23.052Z,25.05
2022-07-30T15:19:51.555Z,25.54
2022-07-30T15:22:19.874Z,25.81
2022-07-30T15:24:47.414Z,25.44
2022-07-30T15:27:14.895Z,25.38
2022-07-30T15:29:44.428Z,24.87
2022-07-30T15:32:11.936Z,25.31
2022-07-30T15:34:39.403Z,25.65
2022-07-30T15:37:06.887Z,25.26
2022-07-30T15:39:34.863Z,25.19
2022-07-30T15:42:03.111Z,24.58
2022-07-30T15:44:30.944Z,24.74
2022-07-30T15:46:59.832Z,24.27
2022-07-30T15:49:27.875Z,23.60
2022-07-30T15:51:56.081Z,23.44
2022-07-30T15:54:24.918Z,23.19
2022-07-30T15:56:54.510Z,23.37
2022-07-30T15:59:29.332Z,23.05
2022-07-30T16:01:57.064Z,23.05
2022-07-30T16:04:31.290Z,23.17
2022-07-30T16:07:00.197Z,23.12
2022-07-30T16:09:27.898Z,22.94
2022-07-30T16:11:55.449Z,23.02
2022-07-30T16:14:23.304Z,22.84
2022-07-30T16:16:52.604Z,22.94
2022-07-30T16:19:20.060Z,22.89
2022-07-30T16:21:48.860Z,23.06
2022-07-30T16:24:16.782Z,23.22
2022-07-30T16:26:44.337Z,23.08
2022-07-30T16:29:13.873Z,23.08
2022-07-30T16:31:41.762Z,23.07
2022-07-30T16:34:09.306Z,23.08
2022-07-30T16:36:37.016Z,23.29
2022-07-30T16:39:06.304Z,23.77
2022-07-30T16:41:33.815Z,23.65
2022-07-30T16:44:01.310Z,23.71
2022-07-30T16:46:29.079Z,23.21
2022-07-30T16:48:56.769Z,22.97
2022-07-30T16:51:24.313Z,22.76
2022-07-30T16:53:51.826Z,22.63
2022-07-30T16:56:20.672Z,22.74
2022-07-30T16:58:48.166Z,22.51
2022-07-30T17:01:15.908Z,22.31
2022-07-30T17:03:43.551Z,22.25
2022-07-30T17:06:11.044Z,22.11
2022-07-30T17:08:38.538Z,22.32
2022-07-30T17:11:08.747Z,22.37
2022-07-30T17:13:40.286Z,22.39
2022-07-30T17:16:08.067Z,22.14
2022-07-30T17:18:35.787Z,21.81
2022-07-30T17:21:03.661Z,22.24
2022-07-30T17:23:31.330Z,22.65
2022-07-30T17:25:58.832Z,22.67
2022-07-30T17:28:27.191Z,22.10
2022-07-30T17:30:56.277Z,22.02
2022-07-30T17:33:23.789Z,22.53
2022-07-30T17:35:51.373Z,23.02
2022-07-30T17:38:19.075Z,23.22
2022-07-30T17:40:46.701Z,22.89
2022-07-30T17:43:15.422Z,22.78
2022-07-30T17:45:43.283Z,22.50
2022-07-30T17:48:12.148Z,22.09
2022-07-30T17:50:39.794Z,21.93
2022-07-30T17:53:07.324Z,21.74
2022-07-30T17:55:35.461Z,21.78
2022-07-30T17:58:03.304Z,21.77
2022-07-30T18:00:31.085Z,21.71
2022-07-30T18:02:58.574Z,21.90
2022-07-30T18:05:28.083Z,21.88
2022-07-30T18:07:55.673Z,21.59
2022-07-30T18:10:23.392Z,21.55
2022-07-30T18:12:50.931Z,21.83
2022-07-30T18:15:19.549Z,21.80
2022-07-30T18:17:47.255Z,21.55
2022-07-30T18:20:15.746Z,21.85
2022-07-30T18:22:44.602Z,21.83
2022-07-30T18:25:18.699Z,21.63
2022-07-30T18:27:47.375Z,21.16
2022-07-30T18:30:15.090Z,20.72
2022-07-30T18:32:42.641Z,20.47
2022-07-30T18:35:14.012Z,20.38
2022-07-30T18:37:42.181Z,20.50
2022-07-30T18:40:12.783Z,20.54
2022-07-30T18:42:41.014Z,20.54
2022-07-30T18:45:10.235Z,20.53
2022-07-30T18:47:37.736Z,20.60
2022-07-30T18:50:06.004Z,20.59
2022-07-30T18:52:33.936Z,20.67
2022-07-30T18:55:01.461Z,20.83
2022-07-30T18:57:30.343Z,21.26
2022-07-30T18:59:57.987Z,20.86
2022-07-30T19:02:26.003Z,21.08
2022-07-30T19:04:54.139Z,21.57
2022-07-30T19:07:21.662Z,21.40
2022-07-30T19:09:49.176Z,21.64
2022-07-30T19:12:16.776Z,21.69
2022-07-30T19:14:45.619Z,20.74
2022-07-30T19:17:13.857Z,20.87
2022-07-30T19:19:42.865Z,20.91
2022-07-30T19:22:10.543Z,20.86
2022-07-30T19:24:38.452Z,20.81
2022-07-30T19:27:09.838Z,20.91
2022-07-30T19:29:41.028Z,21.11
2022-07-30T19:32:09.939Z,21.43
2022-07-30T19:34:37.599Z,21.68
2022-07-30T19:37:05.183Z,21.69
2022-07-30T19:39:35.011Z,21.74
2022-07-30T19:42:04.033Z,21.69
2022-07-30T19:44:32.312Z,21.46
2022-07-30T19:47:00.062Z,21.26
2022-07-30T19:52:23.555Z,21.26
2022-07-30T19:54:52.902Z,21.16
2022-07-30T19:57:20.778Z,21.05
2022-07-30T20:00:00.198Z,20.79
2022-07-30T20:02:35.492Z,20.74
2022-07-30T20:05:06.250Z,20.61
2022-07-30T20:07:39.227Z,20.15
2022-07-30T20:10:07.924Z,20.22
2022-07-30T20:12:35.439Z,19.83
2022-07-30T20:15:02.996Z,20.02
2022-07-30T20:17:31.067Z,19.92
2022-07-30T20:20:04.605Z,19.35
2022-07-30T20:22:33.956Z,19.69
2022-07-30T20:25:01.488Z,19.83
2022-07-30T20:27:38.396Z,19.57
2022-07-30T20:30:07.924Z,19.79
2022-07-30T20:32:35.632Z,19.74
2022-07-30T20:35:05.909Z,19.67
2022-07-30T20:37:33.410Z,19.60
2022-07-30T20:40:21.235Z,19.58
2022-07-30T20:42:50.635Z,19.52
2022-07-30T20:45:18.185Z,19.27
2022-07-30T20:48:08.326Z,19.12
2022-07-30T20:50:46.470Z,19.25
2022-07-30T20:53:16.968Z,19.29
2022-07-30T20:55:44.506Z,19.16
2022-07-30T20:58:16.743Z,19.03
2022-07-30T21:00:49.805Z,18.97
2022-07-30T21:03:18.841Z,18.85
2022-07-30T21:05:52.479Z,18.45
2022-07-30T21:08:20.333Z,18.41
2022-07-30T21:10:47.822Z,18.22
2022-07-30T21:13:15.545Z,18.44
2022-07-30T21:16:02.560Z,18.60
2022-07-30T21:18:30.818Z,18.69
2022-07-30T21:21:00.520Z,18.78
2022-07-30T21:23:28.450Z,18.64
2022-07-30T21:26:00.543Z,18.62
2022-07-30T21:31:18.164Z,18.48
2022-07-30T21:33:45.857Z,18.35
2022-07-30T21:36:15.017Z,18.24
2022-07-30T21:38:42.906Z,18.21
2022-07-30T21:41:14.353Z,18.31
2022-07-30T21:43:43.257Z,18.36
2022-07-30T21:46:10.982Z,18.34
2022-07-30T21:48:39.670Z,18.21
2022-07-30T21:51:08.472Z,18.25
2022-07-30T21:53:45.950Z,18.19
2022-07-30T21:56:15.060Z,18.07
2022-07-30T21:58:43.870Z,18.01
2022-07-30T22:01:17.382Z,17.89
2022-07-30T22:04:04.649Z,17.87
2022-07-30T22:06:34.099Z,17.84
2022-07-30T22:09:08.573Z,17.84
2022-07-30T22:11:46.192Z,17.88
2022-07-30T22:14:14.163Z,17.92
2022-07-30T22:16:45.857Z,17.87
2022-07-30T22:19:14.435Z,17.80
2022-07-30T22:21:42.189Z,17.76
2022-07-30T22:24:11.012Z,17.72
2022-07-30T22:26:57.634Z,17.66
2022-07-30T22:29:34.563Z,17.60
2022-07-30T22:32:03.538Z,17.61
2022-07-30T22:34:31.470Z,17.60
2022-07-30T22:36:58.979Z,17.53
2022-07-30T22:39:31.772Z,17.48
2022-07-30T22:42:15.961Z,17.48
2022-07-30T22:44:46.003Z,17.41
2022-07-30T22:47:21.358Z,16.85
2022-07-30T22:50:02.810Z,16.79
2022-07-30T22:52:31.009Z,17.14
2022-07-30T22:55:08.690Z,17.28
2022-07-30T22:57:38.386Z,17.34
2022-07-30T23:00:11.414Z,17.22
2022-07-30T23:02:39.523Z,17.29
2022-07-30T23:05:07.713Z,17.25
2022-07-30T23:07:39.450Z,17.33
2022-07-30T23:10:18.230Z,17.29
2022-07-30T23:12:15.154Z,21.23
2022-07-30T23:12:31.315Z,18.62
2022-07-30T23:12:48.671Z,17.23
2022-07-30T23:15:16.483Z,17.20
2022-07-30T23:17:44.346Z,17.19
2022-07-30T23:20:15.232Z,17.14
2022-07-30T23:22:42.738Z,17.08
2022-07-30T23:25:12.558Z,17.05
2022-07-30T23:27:41.033Z,17.03
2022-07-30T23:30:11.145Z,17.06
2022-07-30T23:32:39.805Z,17.06
2022-07-30T23:35:08.699Z,16.96
2022-07-30T23:37:47.902Z,16.98
2022-07-30T23:40:19.213Z,16.99
2022-07-30T23:42:47.027Z,16.98
2022-07-30T23:45:14.535Z,16.94
2022-07-30T23:47:51.289Z,16.89
2022-07-30T23:50:30.280Z,16.87
2022-07-30T23:52:57.817Z,16.85
2022-07-30T23:55:27.006Z,16.77
2022-07-30T23:57:54.572Z,16.77
